sensor_id;sensor_type;location;lat;lon;timestamp;pressure;altitude;pressure_sealevel;temperature;humidity
20628;BME280;10473;42.734;24.258;2023-06-14T00:01:52;91651.84;;;17.43;84.24
20628;BME280;10473;42.734;24.258;2023-06-14T00:04:20;91652.44;;;17.31;84.54
20628;BME280;10473;42.734;24.258;2023-06-14T00:06:48;91639.56;;;17.03;83.83
20628;BME280;10473;42.734;24.258;2023-06-14T00:09:16;91655.50;;;17.10;83.03
20628;BME280;10473;42.734;24.258;2023-06-14T00:11:44;91644.78;;;17.10;82.65
20628;BME280;10473;42.734;24.258;2023-06-14T00:14:12;91658.72;;;17.21;83.59
20628;BME280;10473;42.734;24.258;2023-06-14T00:16:41;91649.75;;;17.31;83.58
20628;BME280;10473;42.734;24.258;2023-06-14T00:19:11;91651.59;;;17.34;83.74
20628;BME280;10473;42.734;24.258;2023-06-14T00:21:38;91645.72;;;17.42;83.09
20628;BME280;10473;42.734;24.258;2023-06-14T00:24:07;91655.34;;;17.40;82.29
20628;BME280;10473;42.734;24.258;2023-06-14T00:26:35;91652.69;;;17.36;82.34
20628;BME280;10473;42.734;24.258;2023-06-14T00:29:04;91645.16;;;17.31;82.96
20628;BME280;10473;42.734;24.258;2023-06-14T00:31:31;91652.78;;;17.33;83.21
20628;BME280;10473;42.734;24.258;2023-06-14T00:34:00;91643.66;;;17.30;83.10
20628;BME280;10473;42.734;24.258;2023-06-14T00:36:28;91653.81;;;17.19;82.51
20628;BME280;10473;42.734;24.258;2023-06-14T00:38:55;91653.44;;;17.17;83.03
20628;BME280;10473;42.734;24.258;2023-06-14T00:41:23;91650.03;;;17.17;82.09
20628;BME280;10473;42.734;24.258;2023-06-14T00:43:51;91643.34;;;17.25;82.58
20628;BME280;10473;42.734;24.258;2023-06-14T00:46:21;91637.53;;;17.30;82.83
20628;BME280;10473;42.734;24.258;2023-06-14T00:48:49;91649.47;;;17.25;82.49
20628;BME280;10473;42.734;24.258;2023-06-14T00:51:19;91649.06;;;17.27;82.65
20628;BME280;10473;42.734;24.258;2023-06-14T00:53:47;91653.47;;;17.37;82.10
20628;BME280;10473;42.734;24.258;2023-06-14T00:56:16;91649.75;;;17.31;82.80
20628;BME280;10473;42.734;24.258;2023-06-14T00:58:50;91650.38;;;17.38;82.66
20628;BME280;10473;42.734;24.258;2023-06-14T01:01:19;91644.34;;;17.34;83.18
20628;BME280;10473;42.734;24.258;2023-06-14T01:03:47;91648.06;;;17.40;83.02
20628;BME280;10473;42.734;24.258;2023-06-14T01:06:21;91648.41;;;17.42;83.22
20628;BME280;10473;42.734;24.258;2023-06-14T01:09:03;91642.63;;;17.44;83.23
20628;BME280;10473;42.734;24.258;2023-06-14T01:11:39;91651.97;;;17.55;82.80
20628;BME280;10473;42.734;24.258;2023-06-14T01:14:09;91643.31;;;17.48;83.57
20628;BME280;10473;42.734;24.258;2023-06-14T01:16:39;91636.38;;;17.50;84.08
20628;BME280;10473;42.734;24.258;2023-06-14T01:19:10;91646.13;;;17.60;83.29
20628;BME280;10473;42.734;24.258;2023-06-14T01:21:41;91641.97;;;17.75;82.33
20628;BME280;10473;42.734;24.258;2023-06-14T01:24:10;91629.69;;;17.78;82.18
20628;BME280;10473;42.734;24.258;2023-06-14T01:26:39;91638.13;;;17.76;82.00
20628;BME280;10473;42.734;24.258;2023-06-14T01:29:12;91637.44;;;17.72;82.61
20628;BME280;10473;42.734;24.258;2023-06-14T01:31:43;91632.31;;;17.62;82.74
20628;BME280;10473;42.734;24.258;2023-06-14T01:34:11;91636.84;;;17.65;83.01
20628;BME280;10473;42.734;24.258;2023-06-14T01:36:41;91638.13;;;17.76;82.53
20628;BME280;10473;42.734;24.258;2023-06-14T01:39:14;91644.06;;;17.68;82.71
20628;BME280;10473;42.734;24.258;2023-06-14T01:41:42;91636.78;;;17.68;83.08
20628;BME280;10473;42.734;24.258;2023-06-14T01:44:12;91628.47;;;17.63;82.97
20628;BME280;10473;42.734;24.258;2023-06-14T01:46:42;91625.38;;;17.64;82.91
20628;BME280;10473;42.734;24.258;2023-06-14T01:49:10;91637.72;;;17.78;82.60
20628;BME280;10473;42.734;24.258;2023-06-14T01:51:38;91637.44;;;17.72;82.76
20628;BME280;10473;42.734;24.258;2023-06-14T01:54:06;91636.69;;;17.72;83.15
20628;BME280;10473;42.734;24.258;2023-06-14T01:56:35;91622.03;;;17.76;82.55
20628;BME280;10473;42.734;24.258;2023-06-14T01:59:02;91632.13;;;17.88;81.84
20628;BME280;10473;42.734;24.258;2023-06-14T02:01:30;91634.88;;;17.85;82.16
20628;BME280;10473;42.734;24.258;2023-06-14T02:04:01;91637.06;;;17.90;81.88
20628;BME280;10473;42.734;24.258;2023-06-14T02:06:29;91632.63;;;17.83;82.04
20628;BME280;10473;42.734;24.258;2023-06-14T02:08:57;91629.50;;;17.85;82.00
20628;BME280;10473;42.734;24.258;2023-06-14T02:11:28;91631.94;;;17.79;82.36
20628;BME280;10473;42.734;24.258;2023-06-14T02:13:57;91640.19;;;17.69;83.49
20628;BME280;10473;42.734;24.258;2023-06-14T02:16:26;91636.47;;;17.47;83.84
20628;BME280;10473;42.734;24.258;2023-06-14T02:18:54;91630.81;;;17.61;84.01
20628;BME280;10473;42.734;24.258;2023-06-14T02:21:23;91639.13;;;17.47;84.95
20628;BME280;10473;42.734;24.258;2023-06-14T02:23:51;91638.03;;;17.44;85.13
20628;BME280;10473;42.734;24.258;2023-06-14T02:26:20;91638.78;;;17.45;85.11
20628;BME280;10473;42.734;24.258;2023-06-14T02:28:48;91641.94;;;17.40;85.76
20628;BME280;10473;42.734;24.258;2023-06-14T02:31:18;91638.47;;;17.20;86.17
20628;BME280;10473;42.734;24.258;2023-06-14T02:33:48;91645.03;;;17.38;85.51
20628;BME280;10473;42.734;24.258;2023-06-14T02:36:16;91648.19;;;17.33;85.59
20628;BME280;10473;42.734;24.258;2023-06-14T02:38:44;91654.13;;;17.44;84.45
20628;BME280;10473;42.734;24.258;2023-06-14T02:41:11;91651.91;;;17.59;83.95
20628;BME280;10473;42.734;24.258;2023-06-14T02:43:39;91657.25;;;17.59;84.57
20628;BME280;10473;42.734;24.258;2023-06-14T02:46:07;91652.53;;;17.47;85.51
20628;BME280;10473;42.734;24.258;2023-06-14T02:48:36;91652.78;;;17.52;84.61
20628;BME280;10473;42.734;24.258;2023-06-14T02:51:03;91652.59;;;17.43;85.33
20628;BME280;10473;42.734;24.258;2023-06-14T02:53:34;91656.38;;;17.46;85.44
20628;BME280;10473;42.734;24.258;2023-06-14T02:56:02;91654.84;;;17.45;85.78
20628;BME280;10473;42.734;24.258;2023-06-14T02:58:31;91658.94;;;17.30;84.86
20628;BME280;10473;42.734;24.258;2023-06-14T03:01:00;91660.47;;;17.31;84.28
20628;BME280;10473;42.734;24.258;2023-06-14T03:03:30;91668.00;;;17.39;84.36
20628;BME280;10473;42.734;24.258;2023-06-14T03:06:00;91664.06;;;17.44;84.31
20628;BME280;10473;42.734;24.258;2023-06-14T03:08:36;91663.50;;;17.33;85.33
20628;BME280;10473;42.734;24.258;2023-06-14T03:11:11;91662.09;;;17.25;86.70
20628;BME280;10473;42.734;24.258;2023-06-14T03:13:39;91672.16;;;17.40;85.55
20628;BME280;10473;42.734;24.258;2023-06-14T03:16:07;91674.09;;;17.40;85.73
20628;BME280;10473;42.734;24.258;2023-06-14T03:18:38;91668.50;;;17.31;86.34
20628;BME280;10473;42.734;24.258;2023-06-14T03:21:08;91673.56;;;17.25;87.10
20628;BME280;10473;42.734;24.258;2023-06-14T03:23:40;91678.47;;;17.30;86.75
20628;BME280;10473;42.734;24.258;2023-06-14T03:26:09;91666.03;;;17.20;87.41
20628;BME280;10473;42.734;24.258;2023-06-14T03:28:39;91673.44;;;17.13;87.60
20628;BME280;10473;42.734;24.258;2023-06-14T03:31:07;91677.63;;;17.14;87.67
20628;BME280;10473;42.734;24.258;2023-06-14T03:33:35;91679.34;;;17.24;86.87
20628;BME280;10473;42.734;24.258;2023-06-14T03:36:03;91679.59;;;17.10;87.67
20628;BME280;10473;42.734;24.258;2023-06-14T03:38:34;91681.63;;;16.83;89.26
20628;BME280;10473;42.734;24.258;2023-06-14T03:41:03;91687.06;;;16.99;88.93
20628;BME280;10473;42.734;24.258;2023-06-14T03:43:32;91683.81;;;16.88;89.41
20628;BME280;10473;42.734;24.258;2023-06-14T03:46:02;91680.31;;;16.91;89.08
20628;BME280;10473;42.734;24.258;2023-06-14T03:48:32;91684.72;;;17.01;88.00
20628;BME280;10473;42.734;24.258;2023-06-14T03:51:02;91689.28;;;17.04;87.87
20628;BME280;10473;42.734;24.258;2023-06-14T03:53:30;91683.25;;;17.19;86.73
20628;BME280;10473;42.734;24.258;2023-06-14T03:56:24;91695.25;;;17.11;87.37
20628;BME280;10473;42.734;24.258;2023-06-14T03:58:54;91693.91;;;17.23;87.17
20628;BME280;10473;42.734;24.258;2023-06-14T04:01:25;91697.06;;;17.18;87.17
20628;BME280;10473;42.734;24.258;2023-06-14T04:03:58;91699.66;;;17.21;87.53
20628;BME280;10473;42.734;24.258;2023-06-14T04:06:26;91703.50;;;17.43;86.42
20628;BME280;10473;42.734;24.258;2023-06-14T04:08:59;91698.47;;;17.45;85.70
20628;BME280;10473;42.734;24.258;2023-06-14T04:11:31;91700.91;;;17.36;86.75
20628;BME280;10473;42.734;24.258;2023-06-14T04:13:59;91689.94;;;17.31;87.93
20628;BME280;10473;42.734;24.258;2023-06-14T04:16:28;91694.22;;;17.25;88.35
20628;BME280;10473;42.734;24.258;2023-06-14T04:18:56;91704.25;;;17.21;88.58
20628;BME280;10473;42.734;24.258;2023-06-14T04:21:25;91703.66;;;17.33;88.03
20628;BME280;10473;42.734;24.258;2023-06-14T04:23:55;91706.41;;;17.29;88.14
20628;BME280;10473;42.734;24.258;2023-06-14T04:26:27;91701.47;;;17.28;88.66
20628;BME280;10473;42.734;24.258;2023-06-14T04:28:58;91700.06;;;17.43;87.70
20628;BME280;10473;42.734;24.258;2023-06-14T04:31:29;91699.91;;;17.50;86.94
20628;BME280;10473;42.734;24.258;2023-06-14T04:34:01;91702.59;;;17.50;86.72
20628;BME280;10473;42.734;24.258;2023-06-14T04:36:32;91710.34;;;17.64;86.01
20628;BME280;10473;42.734;24.258;2023-06-14T04:39:03;91711.13;;;17.64;86.31
20628;BME280;10473;42.734;24.258;2023-06-14T04:41:31;91706.03;;;17.70;86.09
20628;BME280;10473;42.734;24.258;2023-06-14T04:44:01;91716.25;;;17.75;85.70
20628;BME280;10473;42.734;24.258;2023-06-14T04:46:34;91719.91;;;17.84;84.91
20628;BME280;10473;42.734;24.258;2023-06-14T04:49:15;91718.03;;;18.01;84.12
20628;BME280;10473;42.734;24.258;2023-06-14T04:51:44;91715.84;;;17.96;84.13
20628;BME280;10473;42.734;24.258;2023-06-14T04:54:13;91717.44;;;17.93;85.07
20628;BME280;10473;42.734;24.258;2023-06-14T04:56:42;91714.19;;;18.02;84.70
20628;BME280;10473;42.734;24.258;2023-06-14T04:59:13;91719.81;;;18.07;84.45
20628;BME280;10473;42.734;24.258;2023-06-14T05:01:41;91724.25;;;18.14;84.53
20628;BME280;10473;42.734;24.258;2023-06-14T05:04:15;91716.00;;;18.24;83.76
20628;BME280;10473;42.734;24.258;2023-06-14T05:06:43;91708.38;;;18.23;83.42
20628;BME280;10473;42.734;24.258;2023-06-14T05:09:12;91718.28;;;18.26;83.40
20628;BME280;10473;42.734;24.258;2023-06-14T05:11:39;91713.59;;;18.30;83.84
20628;BME280;10473;42.734;24.258;2023-06-14T05:14:08;91712.81;;;18.29;84.00
20628;BME280;10473;42.734;24.258;2023-06-14T05:16:37;91725.34;;;18.36;83.80
20628;BME280;10473;42.734;24.258;2023-06-14T05:19:05;91721.50;;;18.37;83.50
20628;BME280;10473;42.734;24.258;2023-06-14T05:21:33;91733.00;;;18.53;82.71
20628;BME280;10473;42.734;24.258;2023-06-14T05:24:01;91732.94;;;18.57;81.96
20628;BME280;10473;42.734;24.258;2023-06-14T05:26:29;91733.34;;;18.55;82.00
20628;BME280;10473;42.734;24.258;2023-06-14T05:28:56;91735.13;;;18.62;82.60
20628;BME280;10473;42.734;24.258;2023-06-14T05:31:24;91738.75;;;18.71;81.82
20628;BME280;10473;42.734;24.258;2023-06-14T05:33:54;91739.16;;;18.70;82.04
20628;BME280;10473;42.734;24.258;2023-06-14T05:36:21;91739.97;;;18.83;82.05
20628;BME280;10473;42.734;24.258;2023-06-14T05:38:49;91752.91;;;18.88;80.43
20628;BME280;10473;42.734;24.258;2023-06-14T05:41:24;91745.34;;;18.83;81.26
20628;BME280;10473;42.734;24.258;2023-06-14T05:43:53;91745.34;;;18.83;81.91
20628;BME280;10473;42.734;24.258;2023-06-14T05:46:21;91746.44;;;18.85;82.34
20628;BME280;10473;42.734;24.258;2023-06-14T05:48:53;91745.88;;;18.94;82.02
20628;BME280;10473;42.734;24.258;2023-06-14T05:51:22;91750.41;;;18.97;81.97
20628;BME280;10473;42.734;24.258;2023-06-14T05:53:51;91755.09;;;19.09;81.08
20628;BME280;10473;42.734;24.258;2023-06-14T05:56:19;91760.13;;;19.07;79.80
20628;BME280;10473;42.734;24.258;2023-06-14T05:58:46;91745.03;;;18.97;82.83
20628;BME280;10473;42.734;24.258;2023-06-14T06:01:15;91745.94;;;18.74;85.10
20628;BME280;10473;42.734;24.258;2023-06-14T06:03:42;91740.47;;;18.62;86.00
20628;BME280;10473;42.734;24.258;2023-06-14T06:06:14;91748.75;;;18.51;86.71
20628;BME280;10473;42.734;24.258;2023-06-14T06:08:42;91751.53;;;18.48;87.36
20628;BME280;10473;42.734;24.258;2023-06-14T06:11:10;91754.81;;;18.55;86.93
20628;BME280;10473;42.734;24.258;2023-06-14T06:13:38;91757.03;;;18.76;85.88
20628;BME280;10473;42.734;24.258;2023-06-14T06:16:07;91764.19;;;18.99;84.96
20628;BME280;10473;42.734;24.258;2023-06-14T06:18:35;91755.59;;;19.04;83.88
20628;BME280;10473;42.734;24.258;2023-06-14T06:21:03;91754.91;;;19.16;82.87
20628;BME280;10473;42.734;24.258;2023-06-14T06:23:32;91760.72;;;19.14;83.19
20628;BME280;10473;42.734;24.258;2023-06-14T06:26:00;91762.31;;;19.12;83.25
20628;BME280;10473;42.734;24.258;2023-06-14T06:28:28;91763.09;;;19.28;82.16
20628;BME280;10473;42.734;24.258;2023-06-14T06:30:55;91762.09;;;19.22;81.92
20628;BME280;10473;42.734;24.258;2023-06-14T06:33:23;91762.13;;;19.51;80.24
20628;BME280;10473;42.734;24.258;2023-06-14T06:35:51;91759.28;;;19.58;82.12
20628;BME280;10473;42.734;24.258;2023-06-14T06:38:18;91768.59;;;19.82;80.36
20628;BME280;10473;42.734;24.258;2023-06-14T06:40:47;91770.25;;;19.92;78.80
20628;BME280;10473;42.734;24.258;2023-06-14T06:43:15;91770.72;;;20.03;77.79
20628;BME280;10473;42.734;24.258;2023-06-14T06:45:47;91777.25;;;20.18;77.45
20628;BME280;10473;42.734;24.258;2023-06-14T06:48:14;91778.34;;;20.33;80.06
20628;BME280;10473;42.734;24.258;2023-06-14T06:50:42;91776.97;;;20.41;76.05
20628;BME280;10473;42.734;24.258;2023-06-14T06:53:10;91782.06;;;20.64;77.56
20628;BME280;10473;42.734;24.258;2023-06-14T06:55:38;91782.59;;;20.84;76.94
20628;BME280;10473;42.734;24.258;2023-06-14T06:58:07;91787.91;;;21.00;76.26
20628;BME280;10473;42.734;24.258;2023-06-14T07:00:34;91787.91;;;21.25;79.07
20628;BME280;10473;42.734;24.258;2023-06-14T07:03:02;91792.81;;;21.39;74.28
20628;BME280;10473;42.734;24.258;2023-06-14T07:05:30;91796.38;;;21.48;71.23
20628;BME280;10473;42.734;24.258;2023-06-14T07:07:58;91801.66;;;21.52;70.58
20628;BME280;10473;42.734;24.258;2023-06-14T07:10:26;91789.03;;;21.49;69.25
20628;BME280;10473;42.734;24.258;2023-06-14T07:12:53;91796.34;;;21.61;69.42
20628;BME280;10473;42.734;24.258;2023-06-14T07:15:23;91798.41;;;21.57;68.93
20628;BME280;10473;42.734;24.258;2023-06-14T07:17:51;91801.44;;;21.46;70.63
20628;BME280;10473;42.734;24.258;2023-06-14T07:20:19;91796.94;;;21.31;72.34
20628;BME280;10473;42.734;24.258;2023-06-14T07:22:48;91799.09;;;21.36;71.68
20628;BME280;10473;42.734;24.258;2023-06-14T07:25:15;91795.44;;;21.42;70.91
20628;BME280;10473;42.734;24.258;2023-06-14T07:27:46;91796.50;;;21.45;69.26
20628;BME280;10473;42.734;24.258;2023-06-14T07:30:14;91790.94;;;21.61;70.84
20628;BME280;10473;42.734;24.258;2023-06-14T07:32:43;91798.59;;;21.75;68.83
20628;BME280;10473;42.734;24.258;2023-06-14T07:35:10;91794.38;;;21.86;71.18
20628;BME280;10473;42.734;24.258;2023-06-14T07:37:38;91802.09;;;21.97;70.12
20628;BME280;10473;42.734;24.258;2023-06-14T07:40:07;91801.63;;;21.77;68.66
20628;BME280;10473;42.734;24.258;2023-06-14T07:42:37;91802.47;;;21.61;69.74
20628;BME280;10473;42.734;24.258;2023-06-14T07:45:06;91800.41;;;21.78;70.78
20628;BME280;10473;42.734;24.258;2023-06-14T07:47:34;91797.53;;;21.60;70.69
20628;BME280;10473;42.734;24.258;2023-06-14T07:50:03;91788.59;;;21.50;71.11
20628;BME280;10473;42.734;24.258;2023-06-14T07:52:32;91797.63;;;21.69;69.33
20628;BME280;10473;42.734;24.258;2023-06-14T07:55:00;91804.31;;;21.64;67.91
20628;BME280;10473;42.734;24.258;2023-06-14T07:57:27;91808.34;;;21.60;69.35
20628;BME280;10473;42.734;24.258;2023-06-14T07:59:55;91808.28;;;21.13;69.48
20628;BME280;10473;42.734;24.258;2023-06-14T08:02:23;91810.75;;;21.33;68.30
20628;BME280;10473;42.734;24.258;2023-06-14T08:04:51;91811.63;;;21.30;68.61
20628;BME280;10473;42.734;24.258;2023-06-14T08:07:20;91815.06;;;21.30;68.80
20628;BME280;10473;42.734;24.258;2023-06-14T08:09:48;91816.38;;;21.26;69.85
20628;BME280;10473;42.734;24.258;2023-06-14T08:12:15;91817.00;;;21.30;69.55
20628;BME280;10473;42.734;24.258;2023-06-14T08:14:43;91824.56;;;21.35;68.90
20628;BME280;10473;42.734;24.258;2023-06-14T08:17:11;91828.41;;;21.34;69.59
20628;BME280;10473;42.734;24.258;2023-06-14T08:19:38;91829.19;;;21.34;69.09
20628;BME280;10473;42.734;24.258;2023-06-14T08:22:07;91831.22;;;21.43;68.53
20628;BME280;10473;42.734;24.258;2023-06-14T08:24:39;91831.97;;;21.56;67.93
20628;BME280;10473;42.734;24.258;2023-06-14T08:27:07;91835.72;;;21.71;68.86
20628;BME280;10473;42.734;24.258;2023-06-14T08:29:35;91842.63;;;21.72;66.52
20628;BME280;10473;42.734;24.258;2023-06-14T08:32:05;91841.38;;;21.98;68.10
20628;BME280;10473;42.734;24.258;2023-06-14T08:34:32;91850.56;;;21.88;66.28
20628;BME280;10473;42.734;24.258;2023-06-14T08:37:01;91844.69;;;22.02;66.58
20628;BME280;10473;42.734;24.258;2023-06-14T08:39:29;91848.97;;;22.12;65.13
20628;BME280;10473;42.734;24.258;2023-06-14T08:42:00;91846.06;;;22.19;66.27
20628;BME280;10473;42.734;24.258;2023-06-14T08:44:28;91853.81;;;22.17;64.66
20628;BME280;10473;42.734;24.258;2023-06-14T08:46:56;91834.28;;;22.13;65.18
20628;BME280;10473;42.734;24.258;2023-06-14T08:49:24;91857.38;;;21.92;64.39
20628;BME280;10473;42.734;24.258;2023-06-14T08:51:56;91850.00;;;21.93;65.27
20628;BME280;10473;42.734;24.258;2023-06-14T08:54:25;91863.09;;;21.82;64.20
20628;BME280;10473;42.734;24.258;2023-06-14T08:56:58;91852.97;;;21.61;63.92
20628;BME280;10473;42.734;24.258;2023-06-14T08:59:26;91851.03;;;21.61;65.84
20628;BME280;10473;42.734;24.258;2023-06-14T09:01:54;91852.22;;;21.73;64.26
20628;BME280;10473;42.734;24.258;2023-06-14T09:04:23;91852.66;;;21.71;64.38
20628;BME280;10473;42.734;24.258;2023-06-14T09:06:55;91856.53;;;21.70;66.29
20628;BME280;10473;42.734;24.258;2023-06-14T09:09:24;91854.91;;;21.73;65.96
20628;BME280;10473;42.734;24.258;2023-06-14T09:11:52;91850.41;;;21.70;65.97
20628;BME280;10473;42.734;24.258;2023-06-14T09:14:23;91851.84;;;21.24;66.98
20628;BME280;10473;42.734;24.258;2023-06-14T09:16:52;91845.91;;;21.17;67.07
20628;BME280;10473;42.734;24.258;2023-06-14T09:19:21;91847.41;;;21.18;67.22
20628;BME280;10473;42.734;24.258;2023-06-14T09:21:49;91845.13;;;21.04;65.54
20628;BME280;10473;42.734;24.258;2023-06-14T09:24:19;91843.63;;;21.15;66.02
20628;BME280;10473;42.734;24.258;2023-06-14T09:26:47;91838.66;;;21.01;68.11
20628;BME280;10473;42.734;24.258;2023-06-14T09:29:16;91836.41;;;21.37;68.02
20628;BME280;10473;42.734;24.258;2023-06-14T09:31:47;91847.94;;;21.38;66.40
20628;BME280;10473;42.734;24.258;2023-06-14T09:34:16;91846.72;;;21.64;66.38
20628;BME280;10473;42.734;24.258;2023-06-14T09:36:44;91854.72;;;21.80;63.35
20628;BME280;10473;42.734;24.258;2023-06-14T09:39:17;91839.19;;;22.05;66.75
20628;BME280;10473;42.734;24.258;2023-06-14T09:41:44;91856.59;;;21.92;63.66
20628;BME280;10473;42.734;24.258;2023-06-14T09:44:12;91848.22;;;21.90;63.32
20628;BME280;10473;42.734;24.258;2023-06-14T09:46:40;91848.00;;;21.84;65.07
20628;BME280;10473;42.734;24.258;2023-06-14T09:49:09;91837.13;;;21.75;65.07
20628;BME280;10473;42.734;24.258;2023-06-14T09:51:42;91844.31;;;21.91;66.75
20628;BME280;10473;42.734;24.258;2023-06-14T09:54:15;91830.84;;;22.12;66.50
20628;BME280;10473;42.734;24.258;2023-06-14T09:56:45;91842.84;;;21.65;65.47
20628;BME280;10473;42.734;24.258;2023-06-14T09:59:12;91844.25;;;21.57;65.80
20628;BME280;10473;42.734;24.258;2023-06-14T10:01:42;91841.31;;;21.89;67.43
20628;BME280;10473;42.734;24.258;2023-06-14T10:04:12;91842.63;;;22.06;63.27
20628;BME280;10473;42.734;24.258;2023-06-14T10:06:45;91826.03;;;22.29;63.04
20628;BME280;10473;42.734;24.258;2023-06-14T10:09:12;91822.13;;;22.30;62.08
20628;BME280;10473;42.734;24.258;2023-06-14T10:11:40;91823.91;;;22.24;66.54
20628;BME280;10473;42.734;24.258;2023-06-14T10:14:10;91823.81;;;22.49;65.31
20628;BME280;10473;42.734;24.258;2023-06-14T10:16:44;91820.03;;;22.46;64.08
20628;BME280;10473;42.734;24.258;2023-06-14T10:19:18;91817.78;;;22.45;62.60
20628;BME280;10473;42.734;24.258;2023-06-14T10:21:55;91821.13;;;22.79;62.06
20628;BME280;10473;42.734;24.258;2023-06-14T10:24:29;91818.16;;;23.17;63.64
20628;BME280;10473;42.734;24.258;2023-06-14T10:26:59;91818.38;;;23.31;60.65
20628;BME280;10473;42.734;24.258;2023-06-14T10:29:27;91810.41;;;23.28;60.41
20628;BME280;10473;42.734;24.258;2023-06-14T10:31:59;91808.88;;;23.18;60.79
20628;BME280;10473;42.734;24.258;2023-06-14T10:34:29;91814.63;;;23.29;59.60
20628;BME280;10473;42.734;24.258;2023-06-14T10:37:02;91800.88;;;23.63;61.61
20628;BME280;10473;42.734;24.258;2023-06-14T10:39:30;91802.63;;;23.39;61.07
20628;BME280;10473;42.734;24.258;2023-06-14T10:42:01;91804.16;;;23.49;59.28
20628;BME280;10473;42.734;24.258;2023-06-14T10:44:38;91800.03;;;23.26;60.15
20628;BME280;10473;42.734;24.258;2023-06-14T10:47:07;91789.88;;;23.39;59.41
20628;BME280;10473;42.734;24.258;2023-06-14T10:49:44;91803.06;;;22.98;61.23
20628;BME280;10473;42.734;24.258;2023-06-14T10:52:13;91802.59;;;22.99;62.40
20628;BME280;10473;42.734;24.258;2023-06-14T10:55:01;91802.47;;;23.03;61.28
20628;BME280;10473;42.734;24.258;2023-06-14T10:57:30;91785.31;;;22.88;58.48
20628;BME280;10473;42.734;24.258;2023-06-14T10:59:59;91790.94;;;23.11;59.20
20628;BME280;10473;42.734;24.258;2023-06-14T11:05:29;91798.09;;;23.27;59.04
20628;BME280;10473;42.734;24.258;2023-06-14T11:08:23;91785.84;;;23.53;58.82
20628;BME280;10473;42.734;24.258;2023-06-14T11:10:59;91788.22;;;23.51;58.12
20628;BME280;10473;42.734;24.258;2023-06-14T11:13:27;91790.88;;;23.24;60.10
20628;BME280;10473;42.734;24.258;2023-06-14T11:15:55;91782.63;;;23.36;59.34
20628;BME280;10473;42.734;24.258;2023-06-14T11:18:24;91773.38;;;23.64;61.47
20628;BME280;10473;42.734;24.258;2023-06-14T11:20:55;91772.66;;;23.82;59.48
20628;BME280;10473;42.734;24.258;2023-06-14T11:23:22;91772.06;;;23.87;57.69
20628;BME280;10473;42.734;24.258;2023-06-14T11:25:50;91780.50;;;23.89;56.99
20628;BME280;10473;42.734;24.258;2023-06-14T11:28:18;91764.81;;;23.84;56.48
20628;BME280;10473;42.734;24.258;2023-06-14T11:30:47;91771.16;;;23.90;58.67
20628;BME280;10473;42.734;24.258;2023-06-14T11:33:18;91767.44;;;24.14;55.45
20628;BME280;10473;42.734;24.258;2023-06-14T11:35:46;91758.06;;;23.88;56.80
20628;BME280;10473;42.734;24.258;2023-06-14T11:38:16;91761.41;;;24.01;59.08
20628;BME280;10473;42.734;24.258;2023-06-14T11:40:43;91765.75;;;24.26;57.77
20628;BME280;10473;42.734;24.258;2023-06-14T11:43:11;91762.13;;;24.29;58.29
20628;BME280;10473;42.734;24.258;2023-06-14T11:45:40;91747.38;;;23.85;57.50
20628;BME280;10473;42.734;24.258;2023-06-14T11:48:08;91747.38;;;23.58;58.37
20628;BME280;10473;42.734;24.258;2023-06-14T11:50:37;91750.00;;;23.31;57.07
20628;BME280;10473;42.734;24.258;2023-06-14T11:53:06;91747.50;;;23.45;58.74
20628;BME280;10473;42.734;24.258;2023-06-14T11:55:37;91744.53;;;23.70;59.64
20628;BME280;10473;42.734;24.258;2023-06-14T11:58:06;91744.94;;;23.51;59.70
20628;BME280;10473;42.734;24.258;2023-06-14T12:00:35;91738.31;;;23.34;59.13
20628;BME280;10473;42.734;24.258;2023-06-14T12:03:03;91740.28;;;23.42;60.95
20628;BME280;10473;42.734;24.258;2023-06-14T12:05:33;91741.91;;;23.22;58.58
20628;BME280;10473;42.734;24.258;2023-06-14T12:08:03;91744.59;;;23.22;58.90
20628;BME280;10473;42.734;24.258;2023-06-14T12:10:45;91735.78;;;23.39;58.63
20628;BME280;10473;42.734;24.258;2023-06-14T12:13:17;91752.25;;;23.23;57.47
20628;BME280;10473;42.734;24.258;2023-06-14T12:15:54;91744.72;;;23.18;57.86
20628;BME280;10473;42.734;24.258;2023-06-14T12:18:31;91741.03;;;23.43;57.73
20628;BME280;10473;42.734;24.258;2023-06-14T12:21:01;91733.78;;;23.22;59.16
20628;BME280;10473;42.734;24.258;2023-06-14T12:23:41;91730.97;;;22.95;60.33
20628;BME280;10473;42.734;24.258;2023-06-14T12:26:12;91736.56;;;22.70;60.89
20628;BME280;10473;42.734;24.258;2023-06-14T12:28:40;91731.22;;;22.48;61.24
20628;BME280;10473;42.734;24.258;2023-06-14T12:31:08;91727.56;;;22.42;62.27
20628;BME280;10473;42.734;24.258;2023-06-14T12:33:36;91726.00;;;22.32;63.01
20628;BME280;10473;42.734;24.258;2023-06-14T12:36:06;91727.06;;;22.35;61.69
20628;BME280;10473;42.734;24.258;2023-06-14T12:38:34;91730.06;;;22.37;63.39
20628;BME280;10473;42.734;24.258;2023-06-14T12:41:01;91730.38;;;22.60;62.72
20628;BME280;10473;42.734;24.258;2023-06-14T12:43:30;91729.72;;;22.78;62.17
20628;BME280;10473;42.734;24.258;2023-06-14T12:45:58;91721.50;;;22.90;61.88
20628;BME280;10473;42.734;24.258;2023-06-14T12:48:26;91738.81;;;23.11;61.75
20628;BME280;10473;42.734;24.258;2023-06-14T12:50:56;91735.22;;;23.14;61.96
20628;BME280;10473;42.734;24.258;2023-06-14T12:53:23;91734.47;;;23.04;60.65
20628;BME280;10473;42.734;24.258;2023-06-14T12:55:51;91733.34;;;22.84;61.70
20628;BME280;10473;42.734;24.258;2023-06-14T12:58:19;91734.06;;;22.75;62.13
20628;BME280;10473;42.734;24.258;2023-06-14T13:00:48;91722.38;;;22.48;61.04
20628;BME280;10473;42.734;24.258;2023-06-14T13:03:16;91719.69;;;22.48;62.73
20628;BME280;10473;42.734;24.258;2023-06-14T13:05:43;91713.63;;;22.44;63.87